sensor_id;sensor_type;location;lat;lon;timestamp;P1;durP1;ratioP1;P2;durP2;ratioP2
43088;SDS011;28709;52.030;5.652;2023-07-09T00:01:47;8.75;;;4.40;;
43088;SDS011;28709;52.030;5.652;2023-07-09T00:04:13;9.57;;;4.30;;
43088;SDS011;28709;52.030;5.652;2023-07-09T00:06:39;10.35;;;4.80;;
43088;SDS011;28709;52.030;5.652;2023-07-09T00:09:06;7.10;;;4.68;;
43088;SDS011;28709;52.030;5.652;2023-07-09T00:11:39;8.27;;;4.90;;
43088;SDS011;28709;52.030;5.652;2023-07-09T00:14:05;7.43;;;4.75;;
43088;SDS011;28709;52.030;5.652;2023-07-09T00:16:32;6.95;;;4.20;;
43088;SDS011;28709;52.030;5.652;2023-07-09T00:18:58;8.77;;;4.85;;
43088;SDS011;28709;52.030;5.652;2023-07-09T00:21:23;6.38;;;3.70;;
43088;SDS011;28709;52.030;5.652;2023-07-09T00:23:49;7.10;;;4.65;;
43088;SDS011;28709;52.030;5.652;2023-07-09T00:26:15;7.05;;;4.05;;
43088;SDS011;28709;52.030;5.652;2023-07-09T00:28:42;7.07;;;4.10;;
43088;SDS011;28709;52.030;5.652;2023-07-09T00:31:11;6.10;;;3.88;;
43088;SDS011;28709;52.030;5.652;2023-07-09T00:33:39;6.28;;;3.90;;
43088;SDS011;28709;52.030;5.652;2023-07-09T00:36:16;9.63;;;3.90;;
43088;SDS011;28709;52.030;5.652;2023-07-09T00:38:59;7.28;;;3.38;;
43088;SDS011;28709;52.030;5.652;2023-07-09T00:41:29;5.93;;;3.67;;
43088;SDS011;28709;52.030;5.652;2023-07-09T00:44:18;8.27;;;3.78;;
43088;SDS011;28709;52.030;5.652;2023-07-09T00:49:15;4.68;;;3.20;;
43088;SDS011;28709;52.030;5.652;2023-07-09T00:51:54;5.00;;;3.42;;
43088;SDS011;28709;52.030;5.652;2023-07-09T00:54:28;6.40;;;3.30;;
43088;SDS011;28709;52.030;5.652;2023-07-09T00:57:11;5.20;;;3.55;;
43088;SDS011;28709;52.030;5.652;2023-07-09T00:59:42;5.00;;;3.53;;
43088;SDS011;28709;52.030;5.652;2023-07-09T01:02:10;5.70;;;4.22;;
43088;SDS011;28709;52.030;5.652;2023-07-09T01:04:36;4.65;;;3.13;;
43088;SDS011;28709;52.030;5.652;2023-07-09T01:07:04;5.95;;;3.38;;
43088;SDS011;28709;52.030;5.652;2023-07-09T01:09:30;7.72;;;3.88;;
43088;SDS011;28709;52.030;5.652;2023-07-09T01:11:55;5.63;;;3.33;;
43088;SDS011;28709;52.030;5.652;2023-07-09T01:14:26;3.83;;;3.35;;
43088;SDS011;28709;52.030;5.652;2023-07-09T01:16:53;4.75;;;3.50;;
43088;SDS011;28709;52.030;5.652;2023-07-09T01:19:25;6.93;;;3.75;;
43088;SDS011;28709;52.030;5.652;2023-07-09T01:21:57;5.68;;;3.63;;
43088;SDS011;28709;52.030;5.652;2023-07-09T01:27:16;4.95;;;3.70;;
43088;SDS011;28709;52.030;5.652;2023-07-09T01:29:44;6.43;;;3.92;;
43088;SDS011;28709;52.030;5.652;2023-07-09T01:32:15;5.15;;;3.58;;
43088;SDS011;28709;52.030;5.652;2023-07-09T01:34:43;6.90;;;3.88;;
43088;SDS011;28709;52.030;5.652;2023-07-09T01:37:14;8.20;;;3.70;;
43088;SDS011;28709;52.030;5.652;2023-07-09T01:39:41;5.63;;;3.60;;
43088;SDS011;28709;52.030;5.652;2023-07-09T01:42:07;6.18;;;3.40;;
43088;SDS011;28709;52.030;5.652;2023-07-09T01:44:33;6.22;;;3.63;;
43088;SDS011;28709;52.030;5.652;2023-07-09T01:47:00;6.50;;;3.60;;
43088;SDS011;28709;52.030;5.652;2023-07-09T01:49:29;7.47;;;4.03;;
43088;SDS011;28709;52.030;5.652;2023-07-09T01:51:57;4.63;;;3.42;;
43088;SDS011;28709;52.030;5.652;2023-07-09T01:54:25;5.60;;;3.70;;
43088;SDS011;28709;52.030;5.652;2023-07-09T01:56:52;5.63;;;3.80;;
43088;SDS011;28709;52.030;5.652;2023-07-09T01:59:21;6.20;;;4.30;;
43088;SDS011;28709;52.030;5.652;2023-07-09T02:01:47;5.78;;;3.95;;
43088;SDS011;28709;52.030;5.652;2023-07-09T02:04:13;5.63;;;4.00;;
43088;SDS011;28709;52.030;5.652;2023-07-09T02:06:38;6.32;;;4.10;;
43088;SDS011;28709;52.030;5.652;2023-07-09T02:09:04;5.65;;;3.50;;
43088;SDS011;28709;52.030;5.652;2023-07-09T02:11:29;6.07;;;3.72;;
43088;SDS011;28709;52.030;5.652;2023-07-09T02:13:55;5.50;;;3.97;;
43088;SDS011;28709;52.030;5.652;2023-07-09T02:16:21;5.05;;;3.50;;
43088;SDS011;28709;52.030;5.652;2023-07-09T02:18:46;5.18;;;3.78;;
43088;SDS011;28709;52.030;5.652;2023-07-09T02:21:12;5.22;;;3.95;;
43088;SDS011;28709;52.030;5.652;2023-07-09T02:23:37;6.03;;;3.60;;
43088;SDS011;28709;52.030;5.652;2023-07-09T02:26:03;4.75;;;3.45;;
43088;SDS011;28709;52.030;5.652;2023-07-09T02:28:29;6.00;;;4.10;;
43088;SDS011;28709;52.030;5.652;2023-07-09T02:30:54;5.82;;;3.85;;
43088;SDS011;28709;52.030;5.652;2023-07-09T02:33:20;6.90;;;4.18;;
43088;SDS011;28709;52.030;5.652;2023-07-09T02:35:45;7.72;;;3.80;;
43088;SDS011;28709;52.030;5.652;2023-07-09T02:38:11;6.53;;;4.20;;
43088;SDS011;28709;52.030;5.652;2023-07-09T02:40:38;5.50;;;3.50;;
43088;SDS011;28709;52.030;5.652;2023-07-09T02:43:04;5.00;;;3.47;;
43088;SDS011;28709;52.030;5.652;2023-07-09T02:45:29;5.40;;;3.72;;
43088;SDS011;28709;52.030;5.652;2023-07-09T02:47:55;5.75;;;4.00;;
43088;SDS011;28709;52.030;5.652;2023-07-09T02:50:20;6.60;;;3.55;;
43088;SDS011;28709;52.030;5.652;2023-07-09T02:52:46;8.50;;;4.82;;
43088;SDS011;28709;52.030;5.652;2023-07-09T02:55:12;6.95;;;4.45;;
43088;SDS011;28709;52.030;5.652;2023-07-09T02:57:37;5.68;;;4.07;;
43088;SDS011;28709;52.030;5.652;2023-07-09T03:00:03;7.00;;;5.15;;
43088;SDS011;28709;52.030;5.652;2023-07-09T03:02:30;9.02;;;4.88;;
43088;SDS011;28709;52.030;5.652;2023-07-09T03:04:56;8.18;;;4.43;;
43088;SDS011;28709;52.030;5.652;2023-07-09T03:07:21;8.05;;;4.20;;
43088;SDS011;28709;52.030;5.652;2023-07-09T03:09:47;5.65;;;4.20;;
43088;SDS011;28709;52.030;5.652;2023-07-09T03:12:13;6.28;;;4.07;;
43088;SDS011;28709;52.030;5.652;2023-07-09T03:14:38;7.22;;;3.85;;
43088;SDS011;28709;52.030;5.652;2023-07-09T03:17:04;6.90;;;3.88;;
43088;SDS011;28709;52.030;5.652;2023-07-09T03:19:29;7.88;;;4.30;;
43088;SDS011;28709;52.030;5.652;2023-07-09T03:21:55;5.25;;;3.95;;
43088;SDS011;28709;52.030;5.652;2023-07-09T03:24:21;5.25;;;4.00;;
43088;SDS011;28709;52.030;5.652;2023-07-09T03:26:46;5.53;;;3.83;;
43088;SDS011;28709;52.030;5.652;2023-07-09T03:29:12;7.32;;;3.92;;
43088;SDS011;28709;52.030;5.652;2023-07-09T03:31:38;11.27;;;4.07;;
43088;SDS011;28709;52.030;5.652;2023-07-09T03:34:04;7.07;;;4.50;;
43088;SDS011;28709;52.030;5.652;2023-07-09T03:36:30;5.72;;;4.28;;
43088;SDS011;28709;52.030;5.652;2023-07-09T03:38:55;6.30;;;4.28;;
43088;SDS011;28709;52.030;5.652;2023-07-09T03:41:21;9.82;;;4.13;;
43088;SDS011;28709;52.030;5.652;2023-07-09T03:43:46;5.13;;;3.63;;
43088;SDS011;28709;52.030;5.652;2023-07-09T03:46:15;5.07;;;3.92;;
43088;SDS011;28709;52.030;5.652;2023-07-09T03:48:40;6.03;;;4.47;;
43088;SDS011;28709;52.030;5.652;2023-07-09T03:51:06;7.35;;;4.22;;
43088;SDS011;28709;52.030;5.652;2023-07-09T03:53:31;7.72;;;4.50;;
43088;SDS011;28709;52.030;5.652;2023-07-09T03:55:57;10.80;;;5.32;;
43088;SDS011;28709;52.030;5.652;2023-07-09T03:58:24;7.30;;;4.85;;
43088;SDS011;28709;52.030;5.652;2023-07-09T04:00:50;7.15;;;4.60;;
43088;SDS011;28709;52.030;5.652;2023-07-09T04:03:16;8.07;;;4.95;;
43088;SDS011;28709;52.030;5.652;2023-07-09T04:05:42;6.63;;;4.53;;
43088;SDS011;28709;52.030;5.652;2023-07-09T04:08:08;7.82;;;4.75;;
43088;SDS011;28709;52.030;5.652;2023-07-09T04:10:33;7.22;;;4.75;;
43088;SDS011;28709;52.030;5.652;2023-07-09T04:12:59;7.03;;;4.80;;
43088;SDS011;28709;52.030;5.652;2023-07-09T04:15:25;8.30;;;4.80;;
43088;SDS011;28709;52.030;5.652;2023-07-09T04:17:51;9.23;;;5.07;;
43088;SDS011;28709;52.030;5.652;2023-07-09T04:20:17;5.82;;;3.92;;
43088;SDS011;28709;52.030;5.652;2023-07-09T04:22:43;6.53;;;4.65;;
43088;SDS011;28709;52.030;5.652;2023-07-09T04:25:09;7.35;;;4.30;;
43088;SDS011;28709;52.030;5.652;2023-07-09T04:27:37;4.78;;;4.20;;
43088;SDS011;28709;52.030;5.652;2023-07-09T04:30:04;6.75;;;4.53;;
43088;SDS011;28709;52.030;5.652;2023-07-09T04:32:37;5.65;;;4.28;;
43088;SDS011;28709;52.030;5.652;2023-07-09T04:35:03;6.65;;;4.35;;
43088;SDS011;28709;52.030;5.652;2023-07-09T04:37:32;5.40;;;4.10;;
43088;SDS011;28709;52.030;5.652;2023-07-09T04:39:58;6.45;;;3.65;;
43088;SDS011;28709;52.030;5.652;2023-07-09T04:42:24;5.88;;;4.18;;
43088;SDS011;28709;52.030;5.652;2023-07-09T04:44:49;7.72;;;4.28;;
43088;SDS011;28709;52.030;5.652;2023-07-09T04:47:15;6.57;;;4.13;;
43088;SDS011;28709;52.030;5.652;2023-07-09T04:49:41;8.68;;;4.35;;
43088;SDS011;28709;52.030;5.652;2023-07-09T04:52:07;7.45;;;4.65;;
43088;SDS011;28709;52.030;5.652;2023-07-09T04:54:36;6.97;;;4.28;;
43088;SDS011;28709;52.030;5.652;2023-07-09T04:57:04;6.00;;;3.80;;
43088;SDS011;28709;52.030;5.652;2023-07-09T04:59:31;6.35;;;3.92;;
43088;SDS011;28709;52.030;5.652;2023-07-09T05:01:56;6.43;;;4.50;;
43088;SDS011;28709;52.030;5.652;2023-07-09T05:04:22;5.65;;;4.13;;
43088;SDS011;28709;52.030;5.652;2023-07-09T05:06:48;6.75;;;4.43;;
43088;SDS011;28709;52.030;5.652;2023-07-09T05:09:13;9.48;;;5.13;;
43088;SDS011;28709;52.030;5.652;2023-07-09T05:11:39;5.38;;;3.78;;
43088;SDS011;28709;52.030;5.652;2023-07-09T05:14:04;7.53;;;4.55;;
43088;SDS011;28709;52.030;5.652;2023-07-09T05:16:30;5.57;;;4.13;;
43088;SDS011;28709;52.030;5.652;2023-07-09T05:18:56;7.32;;;5.32;;
43088;SDS011;28709;52.030;5.652;2023-07-09T05:21:21;6.03;;;4.32;;
43088;SDS011;28709;52.030;5.652;2023-07-09T05:23:47;7.32;;;4.88;;
43088;SDS011;28709;52.030;5.652;2023-07-09T05:26:13;9.05;;;5.47;;
43088;SDS011;28709;52.030;5.652;2023-07-09T05:28:38;10.63;;;6.43;;
43088;SDS011;28709;52.030;5.652;2023-07-09T05:31:04;9.48;;;6.15;;
43088;SDS011;28709;52.030;5.652;2023-07-09T05:33:30;11.30;;;7.18;;
43088;SDS011;28709;52.030;5.652;2023-07-09T05:35:56;9.48;;;6.07;;
43088;SDS011;28709;52.030;5.652;2023-07-09T05:38:22;9.65;;;7.22;;
43088;SDS011;28709;52.030;5.652;2023-07-09T05:40:47;14.55;;;8.48;;
43088;SDS011;28709;52.030;5.652;2023-07-09T05:43:13;13.32;;;8.55;;
43088;SDS011;28709;52.030;5.652;2023-07-09T05:45:39;16.42;;;10.75;;
43088;SDS011;28709;52.030;5.652;2023-07-09T05:48:05;17.95;;;10.15;;
43088;SDS011;28709;52.030;5.652;2023-07-09T05:50:32;19.27;;;10.30;;
43088;SDS011;28709;52.030;5.652;2023-07-09T05:53:00;12.65;;;8.35;;
43088;SDS011;28709;52.030;5.652;2023-07-09T05:55:26;13.98;;;9.30;;
43088;SDS011;28709;52.030;5.652;2023-07-09T05:57:52;12.25;;;8.35;;
43088;SDS011;28709;52.030;5.652;2023-07-09T06:00:18;12.02;;;7.80;;
43088;SDS011;28709;52.030;5.652;2023-07-09T06:02:44;18.20;;;7.90;;
43088;SDS011;28709;52.030;5.652;2023-07-09T06:05:10;11.20;;;6.57;;
43088;SDS011;28709;52.030;5.652;2023-07-09T06:07:37;12.35;;;8.50;;
43088;SDS011;28709;52.030;5.652;2023-07-09T06:10:04;17.75;;;7.68;;
43088;SDS011;28709;52.030;5.652;2023-07-09T06:12:30;11.15;;;7.30;;
43088;SDS011;28709;52.030;5.652;2023-07-09T06:14:56;14.40;;;8.48;;
43088;SDS011;28709;52.030;5.652;2023-07-09T06:17:22;10.38;;;7.13;;
43088;SDS011;28709;52.030;5.652;2023-07-09T06:19:47;12.65;;;7.30;;
43088;SDS011;28709;52.030;5.652;2023-07-09T06:22:13;11.50;;;7.47;;
43088;SDS011;28709;52.030;5.652;2023-07-09T06:24:38;12.20;;;7.03;;
43088;SDS011;28709;52.030;5.652;2023-07-09T06:27:04;10.27;;;6.00;;
43088;SDS011;28709;52.030;5.652;2023-07-09T06:29:30;12.50;;;6.72;;
43088;SDS011;28709;52.030;5.652;2023-07-09T06:31:56;11.48;;;7.03;;
43088;SDS011;28709;52.030;5.652;2023-07-09T06:34:21;8.98;;;6.97;;
43088;SDS011;28709;52.030;5.652;2023-07-09T06:36:47;11.60;;;7.53;;
43088;SDS011;28709;52.030;5.652;2023-07-09T06:39:12;8.88;;;6.20;;
43088;SDS011;28709;52.030;5.652;2023-07-09T06:41:38;10.27;;;7.45;;
43088;SDS011;28709;52.030;5.652;2023-07-09T06:44:05;11.68;;;7.63;;
43088;SDS011;28709;52.030;5.652;2023-07-09T06:46:31;8.95;;;6.50;;
43088;SDS011;28709;52.030;5.652;2023-07-09T06:48:57;10.60;;;6.07;;
43088;SDS011;28709;52.030;5.652;2023-07-09T06:51:23;11.48;;;6.95;;
43088;SDS011;28709;52.030;5.652;2023-07-09T06:53:48;13.25;;;7.25;;
43088;SDS011;28709;52.030;5.652;2023-07-09T06:56:15;10.23;;;6.28;;
43088;SDS011;28709;52.030;5.652;2023-07-09T06:58:41;11.45;;;6.88;;
43088;SDS011;28709;52.030;5.652;2023-07-09T07:01:07;9.93;;;6.40;;
43088;SDS011;28709;52.030;5.652;2023-07-09T07:03:34;8.88;;;6.75;;
43088;SDS011;28709;52.030;5.652;2023-07-09T07:06:00;9.07;;;5.97;;
43088;SDS011;28709;52.030;5.652;2023-07-09T07:08:27;9.55;;;6.90;;
43088;SDS011;28709;52.030;5.652;2023-07-09T07:10:54;11.52;;;5.90;;
43088;SDS011;28709;52.030;5.652;2023-07-09T07:13:27;7.60;;;5.85;;
43088;SDS011;28709;52.030;5.652;2023-07-09T07:18:27;8.10;;;5.07;;
43088;SDS011;28709;52.030;5.652;2023-07-09T07:20:53;10.23;;;5.05;;
43088;SDS011;28709;52.030;5.652;2023-07-09T07:23:18;9.13;;;4.88;;
43088;SDS011;28709;52.030;5.652;2023-07-09T07:25:45;10.00;;;5.50;;
43088;SDS011;28709;52.030;5.652;2023-07-09T07:28:11;6.10;;;4.63;;
43088;SDS011;28709;52.030;5.652;2023-07-09T07:30:37;12.25;;;5.20;;
43088;SDS011;28709;52.030;5.652;2023-07-09T07:33:02;8.68;;;4.53;;
43088;SDS011;28709;52.030;5.652;2023-07-09T07:35:28;8.00;;;5.00;;
43088;SDS011;28709;52.030;5.652;2023-07-09T07:37:54;8.48;;;4.68;;
43088;SDS011;28709;52.030;5.652;2023-07-09T07:40:20;6.45;;;4.93;;
43088;SDS011;28709;52.030;5.652;2023-07-09T07:42:46;8.50;;;5.35;;
43088;SDS011;28709;52.030;5.652;2023-07-09T07:45:11;8.15;;;5.72;;
43088;SDS011;28709;52.030;5.652;2023-07-09T07:47:37;13.43;;;4.93;;
43088;SDS011;28709;52.030;5.652;2023-07-09T07:50:04;8.25;;;5.40;;
43088;SDS011;28709;52.030;5.652;2023-07-09T07:52:31;6.68;;;4.78;;
43088;SDS011;28709;52.030;5.652;2023-07-09T07:54:57;10.30;;;6.30;;
43088;SDS011;28709;52.030;5.652;2023-07-09T07:57:25;7.65;;;5.13;;
43088;SDS011;28709;52.030;5.652;2023-07-09T07:59:51;9.65;;;5.07;;
43088;SDS011;28709;52.030;5.652;2023-07-09T08:02:16;6.05;;;4.72;;
43088;SDS011;28709;52.030;5.652;2023-07-09T08:04:42;8.30;;;5.35;;
43088;SDS011;28709;52.030;5.652;2023-07-09T08:07:09;10.02;;;4.60;;
43088;SDS011;28709;52.030;5.652;2023-07-09T08:09:35;11.38;;;5.40;;
43088;SDS011;28709;52.030;5.652;2023-07-09T08:12:02;10.65;;;5.60;;
43088;SDS011;28709;52.030;5.652;2023-07-09T08:14:34;8.88;;;5.05;;
43088;SDS011;28709;52.030;5.652;2023-07-09T08:17:00;11.10;;;6.25;;
43088;SDS011;28709;52.030;5.652;2023-07-09T08:19:26;8.05;;;5.50;;
43088;SDS011;28709;52.030;5.652;2023-07-09T08:21:51;9.00;;;5.35;;
43088;SDS011;28709;52.030;5.652;2023-07-09T08:24:17;8.57;;;5.68;;
43088;SDS011;28709;52.030;5.652;2023-07-09T08:26:43;6.28;;;4.72;;
43088;SDS011;28709;52.030;5.652;2023-07-09T08:29:08;7.63;;;4.50;;
43088;SDS011;28709;52.030;5.652;2023-07-09T08:31:34;7.22;;;4.65;;
43088;SDS011;28709;52.030;5.652;2023-07-09T08:34:00;8.48;;;5.50;;
43088;SDS011;28709;52.030;5.652;2023-07-09T08:36:26;6.18;;;4.40;;
43088;SDS011;28709;52.030;5.652;2023-07-09T08:38:52;6.80;;;4.57;;
43088;SDS011;28709;52.030;5.652;2023-07-09T08:47:00;7.38;;;4.75;;
43088;SDS011;28709;52.030;5.652;2023-07-09T08:52:41;10.25;;;4.75;;
43088;SDS011;28709;52.030;5.652;2023-07-09T08:55:12;8.15;;;4.60;;
43088;SDS011;28709;52.030;5.652;2023-07-09T08:57:42;7.28;;;4.32;;
43088;SDS011;28709;52.030;5.652;2023-07-09T09:05:33;9.65;;;5.55;;
43088;SDS011;28709;52.030;5.652;2023-07-09T09:08:30;7.53;;;4.63;;
43088;SDS011;28709;52.030;5.652;2023-07-09T09:11:33;9.40;;;4.75;;
43088;SDS011;28709;52.030;5.652;2023-07-09T09:14:33;10.70;;;4.78;;
43088;SDS011;28709;52.030;5.652;2023-07-09T09:17:03;7.38;;;5.18;;
43088;SDS011;28709;52.030;5.652;2023-07-09T09:19:38;6.75;;;4.60;;
43088;SDS011;28709;52.030;5.652;2023-07-09T09:22:11;7.93;;;5.95;;
43088;SDS011;28709;52.030;5.652;2023-07-09T09:24:46;8.52;;;4.30;;
43088;SDS011;28709;52.030;5.652;2023-07-09T09:27:19;9.25;;;5.20;;
43088;SDS011;28709;52.030;5.652;2023-07-09T09:29:44;6.63;;;5.22;;
43088;SDS011;28709;52.030;5.652;2023-07-09T09:32:28;7.07;;;4.60;;
43088;SDS011;28709;52.030;5.652;2023-07-09T09:35:10;7.90;;;3.90;;
43088;SDS011;28709;52.030;5.652;2023-07-09T09:37:40;6.68;;;4.72;;
43088;SDS011;28709;52.030;5.652;2023-07-09T09:40:09;8.45;;;5.60;;
43088;SDS011;28709;52.030;5.652;2023-07-09T09:42:35;8.48;;;4.85;;
43088;SDS011;28709;52.030;5.652;2023-07-09T09:45:01;6.93;;;4.57;;
43088;SDS011;28709;52.030;5.652;2023-07-09T09:47:27;7.72;;;4.78;;
43088;SDS011;28709;52.030;5.652;2023-07-09T09:49:53;4.82;;;4.10;;
43088;SDS011;28709;52.030;5.652;2023-07-09T09:52:19;5.93;;;4.63;;
43088;SDS011;28709;52.030;5.652;2023-07-09T09:54:50;4.75;;;4.00;;
43088;SDS011;28709;52.030;5.652;2023-07-09T09:57:20;5.88;;;3.80;;
43088;SDS011;28709;52.030;5.652;2023-07-09T09:59:48;7.60;;;4.32;;
43088;SDS011;28709;52.030;5.652;2023-07-09T10:02:18;8.63;;;4.97;;
43088;SDS011;28709;52.030;5.652;2023-07-09T10:04:46;9.43;;;4.45;;
43088;SDS011;28709;52.030;5.652;2023-07-09T10:07:22;7.30;;;4.15;;
43088;SDS011;28709;52.030;5.652;2023-07-09T10:09:59;8.88;;;3.90;;
43088;SDS011;28709;52.030;5.652;2023-07-09T10:31:58;5.60;;;3.33;;
43088;SDS011;28709;52.030;5.652;2023-07-09T10:35:01;4.82;;;2.90;;
43088;SDS011;28709;52.030;5.652;2023-07-09T10:40:30;8.13;;;3.47;;
43088;SDS011;28709;52.030;5.652;2023-07-09T10:43:03;8.07;;;3.63;;
43088;SDS011;28709;52.030;5.652;2023-07-09T10:45:37;5.13;;;3.83;;
43088;SDS011;28709;52.030;5.652;2023-07-09T10:48:09;4.90;;;3.60;;
43088;SDS011;28709;52.030;5.652;2023-07-09T10:50:43;5.07;;;3.20;;
43088;SDS011;28709;52.030;5.652;2023-07-09T10:53:17;11.63;;;4.30;;
43088;SDS011;28709;52.030;5.652;2023-07-09T10:56:00;5.97;;;3.67;;
43088;SDS011;28709;52.030;5.652;2023-07-09T11:01:56;6.88;;;3.90;;
43088;SDS011;28709;52.030;5.652;2023-07-09T11:04:29;6.00;;;3.88;;
43088;SDS011;28709;52.030;5.652;2023-07-09T11:07:17;6.63;;;3.35;;
43088;SDS011;28709;52.030;5.652;2023-07-09T11:09:48;5.70;;;3.17;;
43088;SDS011;28709;52.030;5.652;2023-07-09T11:12:28;6.43;;;2.75;;
43088;SDS011;28709;52.030;5.652;2023-07-09T11:17:26;6.45;;;3.30;;
43088;SDS011;28709;52.030;5.652;2023-07-09T11:19:54;6.10;;;3.28;;
43088;SDS011;28709;52.030;5.652;2023-07-09T11:22:27;5.57;;;3.03;;
43088;SDS011;28709;52.030;5.652;2023-07-09T11:25:14;6.22;;;3.42;;
43088;SDS011;28709;52.030;5.652;2023-07-09T11:27:52;6.43;;;3.50;;
43088;SDS011;28709;52.030;5.652;2023-07-09T11:30:24;5.43;;;2.25;;
43088;SDS011;28709;52.030;5.652;2023-07-09T11:33:01;5.72;;;3.05;;
43088;SDS011;28709;52.030;5.652;2023-07-09T11:35:44;5.82;;;3.65;;
43088;SDS011;28709;52.030;5.652;2023-07-09T11:38:38;5.60;;;3.15;;
43088;SDS011;28709;52.030;5.652;2023-07-09T11:41:25;7.50;;;2.95;;
43088;SDS011;28709;52.030;5.652;2023-07-09T11:43:51;7.82;;;3.15;;
43088;SDS011;28709;52.030;5.652;2023-07-09T11:46:17;10.32;;;3.25;;
43088;SDS011;28709;52.030;5.652;2023-07-09T11:48:47;5.32;;;3.00;;
43088;SDS011;28709;52.030;5.652;2023-07-09T11:51:15;6.65;;;3.10;;
43088;SDS011;28709;52.030;5.652;2023-07-09T11:53:55;7.13;;;3.08;;
43088;SDS011;28709;52.030;5.652;2023-07-09T11:56:21;6.25;;;3.35;;
43088;SDS011;28709;52.030;5.652;2023-07-09T11:58:56;5.13;;;2.83;;
43088;SDS011;28709;52.030;5.652;2023-07-09T12:01:23;7.22;;;3.17;;
43088;SDS011;28709;52.030;5.652;2023-07-09T12:03:59;5.70;;;3.22;;
43088;SDS011;28709;52.030;5.652;2023-07-09T12:06:28;6.97;;;3.17;;
43088;SDS011;28709;52.030;5.652;2023-07-09T12:08:57;10.88;;;3.40;;
43088;SDS011;28709;52.030;5.652;2023-07-09T12:13:50;7.57;;;3.05;;
43088;SDS011;28709;52.030;5.652;2023-07-09T12:16:28;4.47;;;2.90;;
43088;SDS011;28709;52.030;5.652;2023-07-09T12:19:01;5.30;;;3.03;;
43088;SDS011;28709;52.030;5.652;2023-07-09T12:21:29;6.65;;;3.58;;
43088;SDS011;28709;52.030;5.652;2023-07-09T12:23:57;8.38;;;3.28;;
43088;SDS011;28709;52.030;5.652;2023-07-09T12:26:23;13.95;;;4.00;;
43088;SDS011;28709;52.030;5.652;2023-07-09T12:28:53;6.85;;;3.60;;
43088;SDS011;28709;52.030;5.652;2023-07-09T12:31:27;5.65;;;3.22;;
43088;SDS011;28709;52.030;5.652;2023-07-09T12:33:55;6.45;;;3.90;;
43088;SDS011;28709;52.030;5.652;2023-07-09T12:36:23;9.30;;;3.47;;
43088;SDS011;28709;52.030;5.652;2023-07-09T12:38:51;8.00;;;3.40;;
43088;SDS011;28709;52.030;5.652;2023-07-09T12:41:24;6.45;;;3.50;;
43088;SDS011;28709;52.030;5.652;2023-07-09T12:43:58;8.30;;;3.88;;
43088;SDS011;28709;52.030;5.652;2023-07-09T12:46:25;6.78;;;3.50;;
43088;SDS011;28709;52.030;5.652;2023-07-09T12:48:52;5.28;;;3.15;;
43088;SDS011;28709;52.030;5.652;2023-07-09T12:51:24;6.38;;;3.20;;
43088;SDS011;28709;52.030;5.652;2023-07-09T12:56:53;5.07;;;3.45;;
43088;SDS011;28709;52.030;5.652;2023-07-09T12:59:38;8.38;;;3.88;;
43088;SDS011;28709;52.030;5.652;2023-07-09T13:02:11;7.28;;;3.80;;
43088;SDS011;28709;52.030;5.652;2023-07-09T13:04:44;7.43;;;3.50;;
43088;SDS011;28709;52.030;5.652;2023-07-09T13:09:49;9.02;;;3.80;;
43088;SDS011;28709;52.030;5.652;2023-07-09T13:12:16;4.93;;;3.40;;
43088;SDS011;28709;52.030;5.652;2023-07-09T13:14:42;5.70;;;3.72;;
43088;SDS011;28709;52.030;5.652;2023-07-09T13:17:11;10.27;;;4.40;;
43088;SDS011;28709;52.030;5.652;2023-07-09T13:19:41;7.43;;;3.92;;
43088;SDS011;28709;52.030;5.652;2023-07-09T13:22:07;6.78;;;5.65;;
43088;SDS011;28709;52.030;5.652;2023-07-09T13:24:37;15.55;;;7.53;;
43088;SDS011;28709;52.030;5.652;2023-07-09T13:27:03;7.97;;;5.28;;
43088;SDS011;28709;52.030;5.652;2023-07-09T13:29:30;10.55;;;6.35;;
43088;SDS011;28709;52.030;5.652;2023-07-09T13:31:58;7.05;;;4.70;;
43088;SDS011;28709;52.030;5.652;2023-07-09T13:34:25;14.50;;;9.07;;
43088;SDS011;28709;52.030;5.652;2023-07-09T13:36:53;7.20;;;4.57;;
43088;SDS011;28709;52.030;5.652;2023-07-09T13:39:21;6.13;;;4.15;;
43088;SDS011;28709;52.030;5.652;2023-07-09T13:41:48;9.55;;;4.80;;
43088;SDS011;28709;52.030;5.652;2023-07-09T13:44:20;7.07;;;5.15;;
43088;SDS011;28709;52.030;5.652;2023-07-09T13:46:50;6.85;;;4.70;;
43088;SDS011;28709;52.030;5.652;2023-07-09T13:49:18;8.77;;;4.80;;
43088;SDS011;28709;52.030;5.652;2023-07-09T13:51:53;9.20;;;4.75;;
43088;SDS011;28709;52.030;5.652;2023-07-09T13:54:25;6.80;;;4.30;;
43088;SDS011;28709;52.030;5.652;2023-07-09T13:57:00;8.65;;;4.75;;
43088;SDS011;28709;52.030;5.652;2023-07-09T13:59:27;6.90;;;4.43;;
43088;SDS011;28709;52.030;5.652;2023-07-09T14:01:55;6.80;;;3.83;;
43088;SDS011;28709;52.030;5.652;2023-07-09T14:04:23;8.30;;;4.20;;
43088;SDS011;28709;52.030;5.652;2023-07-09T14:06:49;7.70;;;4.65;;
43088;SDS011;28709;52.030;5.652;2023-07-09T14:09:15;5.80;;;3.58;;
43088;SDS011;28709;52.030;5.652;2023-07-09T14:11:42;9.20;;;3.95;;
43088;SDS011;28709;52.030;5.652;2023-07-09T14:14:22;7.00;;;4.68;;
43088;SDS011;28709;52.030;5.652;2023-07-09T14:19:22;7.47;;;4.20;;
43088;SDS011;28709;52.030;5.652;2023-07-09T14:21:49;7.57;;;4.50;;
43088;SDS011;28709;52.030;5.652;2023-07-09T14:24:20;5.85;;;4.03;;
43088;SDS011;28709;52.030;5.652;2023-07-09T14:26:48;7.00;;;4.55;;
43088;SDS011;28709;52.030;5.652;2023-07-09T14:29:15;4.75;;;3.45;;
43088;SDS011;28709;52.030;5.652;2023-07-09T14:31:42;5.35;;;3.55;;
43088;SDS011;28709;52.030;5.652;2023-07-09T14:36:54;7.05;;;3.95;;
43088;SDS011;28709;52.030;5.652;2023-07-09T14:39:21;10.70;;;3.28;;
43088;SDS011;28709;52.030;5.652;2023-07-09T14:41:48;6.00;;;3.40;;
43088;SDS011;28709;52.030;5.652;2023-07-09T14:44:21;5.97;;;2.90;;
43088;SDS011;28709;52.030;5.652;2023-07-09T14:46:49;6.88;;;3.33;;
43088;SDS011;28709;52.030;5.652;2023-07-09T14:49:17;9.20;;;3.08;;
43088;SDS011;28709;52.030;5.652;2023-07-09T14:51:43;12.10;;;3.28;;
43088;SDS011;28709;52.030;5.652;2023-07-09T14:57:05;7.10;;;3.10;;
43088;SDS011;28709;52.030;5.652;2023-07-09T14:59:42;4.75;;;2.42;;
43088;SDS011;28709;52.030;5.652;2023-07-09T15:02:11;6.78;;;3.25;;
43088;SDS011;28709;52.030;5.652;2023-07-09T15:04:47;5.35;;;3.00;;
43088;SDS011;28709;52.030;5.652;2023-07-09T15:07:13;8.48;;;3.85;;
43088;SDS011;28709;52.030;5.652;2023-07-09T15:09:39;11.18;;;5.07;;
43088;SDS011;28709;52.030;5.652;2023-07-09T15:12:12;6.35;;;3.78;;
43088;SDS011;28709;52.030;5.652;2023-07-09T15:14:42;5.88;;;2.85;;
43088;SDS011;28709;52.030;5.652;2023-07-09T15:17:10;6.68;;;2.55;;
43088;SDS011;28709;52.030;5.652;2023-07-09T15:19:37;14.43;;;9.77;;
43088;SDS011;28709;52.030;5.652;2023-07-09T15:22:03;14.23;;;7.93;;
43088;SDS011;28709;52.030;5.652;2023-07-09T15:24:34;10.55;;;7.45;;
43088;SDS011;28709;52.030;5.652;2023-07-09T15:27:00;12.57;;;10.30;;
43088;SDS011;28709;52.030;5.652;2023-07-09T15:29:27;13.23;;;8.23;;
43088;SDS011;28709;52.030;5.652;2023-07-09T15:31:53;8.23;;;5.55;;
43088;SDS011;28709;52.030;5.652;2023-07-09T15:34:19;6.95;;;4.63;;
43088;SDS011;28709;52.030;5.652;2023-07-09T15:36:49;14.75;;;5.38;;
43088;SDS011;28709;52.030;5.652;2023-07-09T15:39:17;7.75;;;4.47;;
43088;SDS011;28709;52.030;5.652;2023-07-09T15:41:44;10.07;;;6.90;;
43088;SDS011;28709;52.030;5.652;2023-07-09T15:44:11;8.70;;;6.63;;
43088;SDS011;28709;52.030;5.652;2023-07-09T15:46:38;24.23;;;21.58;;
43088;SDS011;28709;52.030;5.652;2023-07-09T15:49:06;13.15;;;10.93;;
43088;SDS011;28709;52.030;5.652;2023-07-09T15:51:32;11.18;;;6.95;;
43088;SDS011;28709;52.030;5.652;2023-07-09T15:53:58;6.50;;;5.05;;
43088;SDS011;28709;52.030;5.652;2023-07-09T15:56:24;5.57;;;4.32;;
43088;SDS011;28709;52.030;5.652;2023-07-09T15:58:54;10.88;;;7.43;;
43088;SDS011;28709;52.030;5.652;2023-07-09T16:01:20;6.45;;;3.83;;